sensor_id;sensor_type;location;lat;lon;timestamp;P1;durP1;ratioP1;P2;durP2;ratioP2
14732;SDS011;7457;50.960;6.830;2023-12-07T00:00:38;30.83;;;20.13;;
14732;SDS011;7457;50.960;6.830;2023-12-07T00:03:04;36.30;;;20.17;;
14732;SDS011;7457;50.960;6.830;2023-12-07T00:05:32;33.78;;;19.38;;
14732;SDS011;7457;50.960;6.830;2023-12-07T00:07:58;29.23;;;18.65;;
14732;SDS011;7457;50.960;6.830;2023-12-07T00:10:24;30.17;;;19.30;;
14732;SDS011;7457;50.960;6.830;2023-12-07T00:12:49;29.88;;;18.45;;
14732;SDS011;7457;50.960;6.830;2023-12-07T00:15:15;31.17;;;19.23;;
14732;SDS011;7457;50.960;6.830;2023-12-07T00:17:41;32.20;;;20.38;;
14732;SDS011;7457;50.960;6.830;2023-12-07T00:20:07;32.90;;;19.33;;
14732;SDS011;7457;50.960;6.830;2023-12-07T00:22:33;32.25;;;20.10;;
14732;SDS011;7457;50.960;6.830;2023-12-07T00:24:59;29.73;;;20.30;;
14732;SDS011;7457;50.960;6.830;2023-12-07T00:27:24;32.20;;;20.63;;
14732;SDS011;7457;50.960;6.830;2023-12-07T00:29:50;35.10;;;21.50;;
14732;SDS011;7457;50.960;6.830;2023-12-07T00:32:16;37.15;;;22.30;;
14732;SDS011;7457;50.960;6.830;2023-12-07T00:34:42;36.95;;;22.70;;
14732;SDS011;7457;50.960;6.830;2023-12-07T00:37:08;34.28;;;22.45;;
14732;SDS011;7457;50.960;6.830;2023-12-07T00:39:34;36.97;;;23.20;;
14732;SDS011;7457;50.960;6.830;2023-12-07T00:42:01;33.65;;;21.83;;
14732;SDS011;7457;50.960;6.830;2023-12-07T00:44:28;34.60;;;21.60;;
14732;SDS011;7457;50.960;6.830;2023-12-07T00:46:53;31.27;;;19.80;;
14732;SDS011;7457;50.960;6.830;2023-12-07T00:49:19;34.28;;;21.90;;
14732;SDS011;7457;50.960;6.830;2023-12-07T00:51:44;28.85;;;19.70;;
14732;SDS011;7457;50.960;6.830;2023-12-07T00:54:10;33.17;;;21.20;;
14732;SDS011;7457;50.960;6.830;2023-12-07T00:56:36;32.75;;;21.95;;
14732;SDS011;7457;50.960;6.830;2023-12-07T00:59:02;37.50;;;22.05;;
14732;SDS011;7457;50.960;6.830;2023-12-07T01:01:28;32.50;;;20.83;;
14732;SDS011;7457;50.960;6.830;2023-12-07T01:03:53;31.05;;;20.17;;
14732;SDS011;7457;50.960;6.830;2023-12-07T01:06:19;31.55;;;18.58;;
14732;SDS011;7457;50.960;6.830;2023-12-07T01:08:44;30.40;;;19.58;;
14732;SDS011;7457;50.960;6.830;2023-12-07T01:11:10;32.35;;;19.05;;
14732;SDS011;7457;50.960;6.830;2023-12-07T01:13:36;31.77;;;19.38;;
14732;SDS011;7457;50.960;6.830;2023-12-07T01:16:01;31.92;;;19.98;;
14732;SDS011;7457;50.960;6.830;2023-12-07T01:18:27;35.97;;;21.63;;
14732;SDS011;7457;50.960;6.830;2023-12-07T01:20:53;34.15;;;19.98;;
14732;SDS011;7457;50.960;6.830;2023-12-07T01:23:18;30.33;;;19.77;;
14732;SDS011;7457;50.960;6.830;2023-12-07T01:25:44;30.67;;;19.90;;
14732;SDS011;7457;50.960;6.830;2023-12-07T01:28:09;34.88;;;20.65;;
14732;SDS011;7457;50.960;6.830;2023-12-07T01:30:35;33.03;;;19.23;;
14732;SDS011;7457;50.960;6.830;2023-12-07T01:33:01;30.67;;;20.27;;
14732;SDS011;7457;50.960;6.830;2023-12-07T01:35:27;28.88;;;19.35;;
14732;SDS011;7457;50.960;6.830;2023-12-07T01:37:53;31.40;;;19.13;;
14732;SDS011;7457;50.960;6.830;2023-12-07T01:40:19;29.70;;;19.67;;
14732;SDS011;7457;50.960;6.830;2023-12-07T01:42:51;39.67;;;20.48;;
14732;SDS011;7457;50.960;6.830;2023-12-07T01:45:17;30.25;;;19.08;;
14732;SDS011;7457;50.960;6.830;2023-12-07T01:47:43;29.23;;;18.55;;
14732;SDS011;7457;50.960;6.830;2023-12-07T01:50:09;29.33;;;18.83;;
14732;SDS011;7457;50.960;6.830;2023-12-07T01:52:36;35.03;;;20.10;;
14732;SDS011;7457;50.960;6.830;2023-12-07T01:55:05;35.50;;;20.67;;
14732;SDS011;7457;50.960;6.830;2023-12-07T01:57:32;31.02;;;20.23;;
14732;SDS011;7457;50.960;6.830;2023-12-07T01:59:57;43.80;;;21.67;;
14732;SDS011;7457;50.960;6.830;2023-12-07T02:02:23;31.42;;;20.17;;
14732;SDS011;7457;50.960;6.830;2023-12-07T02:04:49;36.20;;;21.45;;
14732;SDS011;7457;50.960;6.830;2023-12-07T02:07:14;33.35;;;20.88;;
14732;SDS011;7457;50.960;6.830;2023-12-07T02:09:40;37.65;;;22.42;;
14732;SDS011;7457;50.960;6.830;2023-12-07T02:12:07;43.75;;;23.27;;
14732;SDS011;7457;50.960;6.830;2023-12-07T02:14:32;38.55;;;23.05;;
14732;SDS011;7457;50.960;6.830;2023-12-07T02:17:10;36.92;;;22.42;;
14732;SDS011;7457;50.960;6.830;2023-12-07T02:22:37;37.95;;;23.70;;
14732;SDS011;7457;50.960;6.830;2023-12-07T02:25:07;38.22;;;23.17;;
14732;SDS011;7457;50.960;6.830;2023-12-07T02:27:39;38.65;;;21.77;;
14732;SDS011;7457;50.960;6.830;2023-12-07T02:30:06;40.95;;;22.30;;
14732;SDS011;7457;50.960;6.830;2023-12-07T02:32:33;40.97;;;22.25;;
14732;SDS011;7457;50.960;6.830;2023-12-07T02:35:00;37.58;;;21.85;;
14732;SDS011;7457;50.960;6.830;2023-12-07T02:37:27;40.53;;;22.55;;
14732;SDS011;7457;50.960;6.830;2023-12-07T02:39:55;34.60;;;22.20;;
14732;SDS011;7457;50.960;6.830;2023-12-07T02:42:22;34.05;;;22.33;;
14732;SDS011;7457;50.960;6.830;2023-12-07T02:44:51;37.85;;;23.38;;
14732;SDS011;7457;50.960;6.830;2023-12-07T02:47:18;38.17;;;23.23;;
14732;SDS011;7457;50.960;6.830;2023-12-07T02:49:44;41.47;;;23.60;;
14732;SDS011;7457;50.960;6.830;2023-12-07T02:52:09;39.08;;;22.20;;
14732;SDS011;7457;50.960;6.830;2023-12-07T02:54:35;39.28;;;22.30;;
14732;SDS011;7457;50.960;6.830;2023-12-07T02:57:01;35.03;;;21.92;;
14732;SDS011;7457;50.960;6.830;2023-12-07T02:59:33;34.63;;;21.75;;
14732;SDS011;7457;50.960;6.830;2023-12-07T03:01:59;43.20;;;22.30;;
14732;SDS011;7457;50.960;6.830;2023-12-07T03:04:24;34.67;;;22.65;;
14732;SDS011;7457;50.960;6.830;2023-12-07T03:06:50;41.63;;;24.23;;
14732;SDS011;7457;50.960;6.830;2023-12-07T03:09:16;44.72;;;25.17;;
14732;SDS011;7457;50.960;6.830;2023-12-07T03:11:41;44.33;;;25.13;;
14732;SDS011;7457;50.960;6.830;2023-12-07T03:14:07;47.28;;;25.25;;
14732;SDS011;7457;50.960;6.830;2023-12-07T03:16:32;41.95;;;25.08;;
14732;SDS011;7457;50.960;6.830;2023-12-07T03:19:00;50.28;;;26.20;;
14732;SDS011;7457;50.960;6.830;2023-12-07T03:21:26;37.85;;;25.05;;
14732;SDS011;7457;50.960;6.830;2023-12-07T03:23:52;34.53;;;22.42;;
14732;SDS011;7457;50.960;6.830;2023-12-07T03:26:17;35.00;;;21.90;;
14732;SDS011;7457;50.960;6.830;2023-12-07T03:28:43;37.88;;;22.90;;
14732;SDS011;7457;50.960;6.830;2023-12-07T03:31:09;39.95;;;22.73;;
14732;SDS011;7457;50.960;6.830;2023-12-07T03:33:34;38.92;;;22.85;;
14732;SDS011;7457;50.960;6.830;2023-12-07T03:36:00;37.63;;;22.58;;
14732;SDS011;7457;50.960;6.830;2023-12-07T03:38:27;33.10;;;21.60;;
14732;SDS011;7457;50.960;6.830;2023-12-07T03:40:53;39.47;;;23.48;;
14732;SDS011;7457;50.960;6.830;2023-12-07T03:43:18;37.80;;;21.10;;
14732;SDS011;7457;50.960;6.830;2023-12-07T03:45:45;38.15;;;21.42;;
14732;SDS011;7457;50.960;6.830;2023-12-07T03:48:11;36.03;;;21.90;;
14732;SDS011;7457;50.960;6.830;2023-12-07T03:50:37;40.00;;;22.02;;
14732;SDS011;7457;50.960;6.830;2023-12-07T03:53:03;32.88;;;20.25;;
14732;SDS011;7457;50.960;6.830;2023-12-07T03:55:28;35.42;;;21.83;;
14732;SDS011;7457;50.960;6.830;2023-12-07T03:57:54;30.88;;;22.25;;
14732;SDS011;7457;50.960;6.830;2023-12-07T04:00:19;39.33;;;22.75;;
14732;SDS011;7457;50.960;6.830;2023-12-07T04:02:46;33.65;;;21.95;;
14732;SDS011;7457;50.960;6.830;2023-12-07T04:05:12;34.30;;;21.15;;
14732;SDS011;7457;50.960;6.830;2023-12-07T04:07:38;33.72;;;21.73;;
14732;SDS011;7457;50.960;6.830;2023-12-07T04:10:04;35.88;;;21.80;;
14732;SDS011;7457;50.960;6.830;2023-12-07T04:12:31;37.05;;;22.73;;
14732;SDS011;7457;50.960;6.830;2023-12-07T04:14:57;41.17;;;24.60;;
14732;SDS011;7457;50.960;6.830;2023-12-07T04:17:22;45.38;;;24.90;;
14732;SDS011;7457;50.960;6.830;2023-12-07T04:19:48;55.75;;;26.52;;
14732;SDS011;7457;50.960;6.830;2023-12-07T04:22:14;43.78;;;25.73;;
14732;SDS011;7457;50.960;6.830;2023-12-07T04:24:39;42.95;;;24.40;;
14732;SDS011;7457;50.960;6.830;2023-12-07T04:27:05;44.63;;;24.90;;
14732;SDS011;7457;50.960;6.830;2023-12-07T04:29:30;51.22;;;27.20;;
14732;SDS011;7457;50.960;6.830;2023-12-07T04:31:56;44.13;;;24.40;;
14732;SDS011;7457;50.960;6.830;2023-12-07T04:34:22;41.00;;;23.50;;
14732;SDS011;7457;50.960;6.830;2023-12-07T04:36:47;34.63;;;22.35;;
14732;SDS011;7457;50.960;6.830;2023-12-07T04:39:14;35.22;;;21.23;;
14732;SDS011;7457;50.960;6.830;2023-12-07T04:41:40;36.22;;;20.60;;
14732;SDS011;7457;50.960;6.830;2023-12-07T04:44:05;38.15;;;20.02;;
14732;SDS011;7457;50.960;6.830;2023-12-07T04:46:31;32.03;;;19.27;;
14732;SDS011;7457;50.960;6.830;2023-12-07T04:48:57;31.17;;;20.05;;
14732;SDS011;7457;50.960;6.830;2023-12-07T04:51:22;36.33;;;20.42;;
14732;SDS011;7457;50.960;6.830;2023-12-07T04:53:48;25.45;;;17.73;;
14732;SDS011;7457;50.960;6.830;2023-12-07T04:56:13;30.80;;;19.45;;
14732;SDS011;7457;50.960;6.830;2023-12-07T04:58:39;31.20;;;19.42;;
14732;SDS011;7457;50.960;6.830;2023-12-07T05:01:05;26.80;;;18.10;;
14732;SDS011;7457;50.960;6.830;2023-12-07T05:03:31;31.38;;;19.25;;
14732;SDS011;7457;50.960;6.830;2023-12-07T05:05:57;29.85;;;20.42;;
14732;SDS011;7457;50.960;6.830;2023-12-07T05:08:23;31.48;;;19.73;;
14732;SDS011;7457;50.960;6.830;2023-12-07T05:10:48;32.75;;;20.17;;
14732;SDS011;7457;50.960;6.830;2023-12-07T05:13:14;37.25;;;20.35;;
14732;SDS011;7457;50.960;6.830;2023-12-07T05:15:39;34.55;;;20.27;;
14732;SDS011;7457;50.960;6.830;2023-12-07T05:18:06;32.53;;;20.63;;
14732;SDS011;7457;50.960;6.830;2023-12-07T05:20:31;32.42;;;20.17;;
14732;SDS011;7457;50.960;6.830;2023-12-07T05:22:57;30.55;;;19.75;;
14732;SDS011;7457;50.960;6.830;2023-12-07T05:25:23;28.02;;;18.45;;
14732;SDS011;7457;50.960;6.830;2023-12-07T05:27:48;25.02;;;17.02;;
14732;SDS011;7457;50.960;6.830;2023-12-07T05:30:14;24.63;;;17.40;;
14732;SDS011;7457;50.960;6.830;2023-12-07T05:32:40;26.42;;;17.52;;
14732;SDS011;7457;50.960;6.830;2023-12-07T05:35:05;27.85;;;18.73;;
14732;SDS011;7457;50.960;6.830;2023-12-07T05:37:32;26.67;;;17.77;;
14732;SDS011;7457;50.960;6.830;2023-12-07T05:39:57;25.17;;;16.42;;
14732;SDS011;7457;50.960;6.830;2023-12-07T05:42:23;25.30;;;16.75;;
14732;SDS011;7457;50.960;6.830;2023-12-07T05:44:49;25.30;;;17.27;;
14732;SDS011;7457;50.960;6.830;2023-12-07T05:47:14;28.55;;;17.40;;
14732;SDS011;7457;50.960;6.830;2023-12-07T05:49:40;30.80;;;18.33;;
14732;SDS011;7457;50.960;6.830;2023-12-07T05:52:06;26.05;;;16.77;;
14732;SDS011;7457;50.960;6.830;2023-12-07T05:54:31;23.25;;;16.20;;
14732;SDS011;7457;50.960;6.830;2023-12-07T05:56:57;23.05;;;14.93;;
14732;SDS011;7457;50.960;6.830;2023-12-07T05:59:22;25.00;;;16.92;;
14732;SDS011;7457;50.960;6.830;2023-12-07T06:01:50;23.23;;;16.35;;
14732;SDS011;7457;50.960;6.830;2023-12-07T06:04:16;28.95;;;18.08;;
14732;SDS011;7457;50.960;6.830;2023-12-07T06:06:42;25.25;;;17.35;;
14732;SDS011;7457;50.960;6.830;2023-12-07T06:09:08;25.45;;;16.65;;
14732;SDS011;7457;50.960;6.830;2023-12-07T06:11:33;24.17;;;17.15;;
14732;SDS011;7457;50.960;6.830;2023-12-07T06:14:02;30.40;;;17.55;;
14732;SDS011;7457;50.960;6.830;2023-12-07T06:16:27;23.85;;;16.13;;
14732;SDS011;7457;50.960;6.830;2023-12-07T06:18:53;26.33;;;16.27;;
14732;SDS011;7457;50.960;6.830;2023-12-07T06:21:19;23.20;;;16.38;;
14732;SDS011;7457;50.960;6.830;2023-12-07T06:23:45;23.45;;;16.40;;
14732;SDS011;7457;50.960;6.830;2023-12-07T06:26:12;23.13;;;16.02;;
14732;SDS011;7457;50.960;6.830;2023-12-07T06:28:37;20.23;;;14.52;;
14732;SDS011;7457;50.960;6.830;2023-12-07T06:31:06;23.48;;;14.85;;
14732;SDS011;7457;50.960;6.830;2023-12-07T06:33:32;22.95;;;15.52;;
14732;SDS011;7457;50.960;6.830;2023-12-07T06:35:58;21.17;;;14.73;;
14732;SDS011;7457;50.960;6.830;2023-12-07T06:38:24;22.40;;;15.15;;
14732;SDS011;7457;50.960;6.830;2023-12-07T06:40:49;21.90;;;13.23;;
14732;SDS011;7457;50.960;6.830;2023-12-07T06:43:15;21.42;;;14.20;;
14732;SDS011;7457;50.960;6.830;2023-12-07T06:45:41;26.67;;;15.68;;
14732;SDS011;7457;50.960;6.830;2023-12-07T06:48:06;22.23;;;14.52;;
14732;SDS011;7457;50.960;6.830;2023-12-07T06:50:32;26.50;;;16.15;;
14732;SDS011;7457;50.960;6.830;2023-12-07T06:52:59;21.58;;;13.95;;
14732;SDS011;7457;50.960;6.830;2023-12-07T06:55:24;23.75;;;14.75;;
14732;SDS011;7457;50.960;6.830;2023-12-07T06:57:50;22.65;;;15.25;;
14732;SDS011;7457;50.960;6.830;2023-12-07T07:00:16;22.70;;;15.07;;
14732;SDS011;7457;50.960;6.830;2023-12-07T07:02:43;23.90;;;14.00;;
14732;SDS011;7457;50.960;6.830;2023-12-07T07:05:08;21.88;;;13.43;;
14732;SDS011;7457;50.960;6.830;2023-12-07T07:07:36;18.02;;;13.35;;
14732;SDS011;7457;50.960;6.830;2023-12-07T07:10:02;21.25;;;12.77;;
14732;SDS011;7457;50.960;6.830;2023-12-07T07:12:28;21.05;;;13.23;;
14732;SDS011;7457;50.960;6.830;2023-12-07T07:14:54;23.35;;;14.55;;
14732;SDS011;7457;50.960;6.830;2023-12-07T07:17:20;19.35;;;13.88;;
14732;SDS011;7457;50.960;6.830;2023-12-07T07:19:46;22.35;;;14.27;;
14732;SDS011;7457;50.960;6.830;2023-12-07T07:22:11;20.60;;;14.32;;
14732;SDS011;7457;50.960;6.830;2023-12-07T07:24:37;17.75;;;13.13;;
14732;SDS011;7457;50.960;6.830;2023-12-07T07:27:03;17.83;;;12.55;;
14732;SDS011;7457;50.960;6.830;2023-12-07T07:29:30;18.15;;;12.40;;
14732;SDS011;7457;50.960;6.830;2023-12-07T07:31:57;20.92;;;13.07;;
14732;SDS011;7457;50.960;6.830;2023-12-07T07:34:23;21.60;;;13.63;;
14732;SDS011;7457;50.960;6.830;2023-12-07T07:36:50;22.52;;;14.38;;
14732;SDS011;7457;50.960;6.830;2023-12-07T07:39:15;17.95;;;12.27;;
14732;SDS011;7457;50.960;6.830;2023-12-07T07:41:41;21.38;;;12.93;;
14732;SDS011;7457;50.960;6.830;2023-12-07T07:44:06;18.52;;;13.02;;
14732;SDS011;7457;50.960;6.830;2023-12-07T07:46:32;19.60;;;13.35;;
14732;SDS011;7457;50.960;6.830;2023-12-07T07:48:58;17.02;;;12.02;;
14732;SDS011;7457;50.960;6.830;2023-12-07T07:51:23;19.25;;;12.32;;
14732;SDS011;7457;50.960;6.830;2023-12-07T07:53:49;17.58;;;12.98;;
14732;SDS011;7457;50.960;6.830;2023-12-07T07:56:15;22.83;;;13.27;;
14732;SDS011;7457;50.960;6.830;2023-12-07T07:58:40;20.30;;;12.80;;
14732;SDS011;7457;50.960;6.830;2023-12-07T08:01:06;18.05;;;13.00;;
14732;SDS011;7457;50.960;6.830;2023-12-07T08:03:32;20.42;;;14.05;;
14732;SDS011;7457;50.960;6.830;2023-12-07T08:05:57;19.48;;;13.75;;
14732;SDS011;7457;50.960;6.830;2023-12-07T08:08:23;21.17;;;13.50;;
14732;SDS011;7457;50.960;6.830;2023-12-07T08:10:51;20.25;;;12.90;;
14732;SDS011;7457;50.960;6.830;2023-12-07T08:13:16;17.10;;;12.75;;
14732;SDS011;7457;50.960;6.830;2023-12-07T08:15:42;15.15;;;12.02;;
14732;SDS011;7457;50.960;6.830;2023-12-07T08:18:08;19.00;;;12.68;;
14732;SDS011;7457;50.960;6.830;2023-12-07T08:20:34;20.52;;;14.50;;
14732;SDS011;7457;50.960;6.830;2023-12-07T08:23:00;19.45;;;12.73;;
14732;SDS011;7457;50.960;6.830;2023-12-07T08:25:25;15.70;;;12.63;;
14732;SDS011;7457;50.960;6.830;2023-12-07T08:27:51;19.10;;;11.98;;
14732;SDS011;7457;50.960;6.830;2023-12-07T08:30:16;17.02;;;12.23;;
14732;SDS011;7457;50.960;6.830;2023-12-07T08:32:43;16.95;;;11.30;;
14732;SDS011;7457;50.960;6.830;2023-12-07T08:35:09;19.00;;;12.10;;
14732;SDS011;7457;50.960;6.830;2023-12-07T08:37:36;17.55;;;12.77;;
14732;SDS011;7457;50.960;6.830;2023-12-07T08:40:04;18.60;;;12.65;;
14732;SDS011;7457;50.960;6.830;2023-12-07T08:42:30;18.75;;;13.07;;
14732;SDS011;7457;50.960;6.830;2023-12-07T08:44:56;20.35;;;13.90;;
14732;SDS011;7457;50.960;6.830;2023-12-07T08:47:22;18.15;;;13.88;;
14732;SDS011;7457;50.960;6.830;2023-12-07T08:49:48;20.13;;;14.63;;
14732;SDS011;7457;50.960;6.830;2023-12-07T08:52:16;24.10;;;14.77;;
14732;SDS011;7457;50.960;6.830;2023-12-07T08:54:43;22.88;;;13.68;;
14732;SDS011;7457;50.960;6.830;2023-12-07T08:57:09;15.95;;;11.98;;
14732;SDS011;7457;50.960;6.830;2023-12-07T08:59:35;19.00;;;13.32;;
14732;SDS011;7457;50.960;6.830;2023-12-07T09:02:00;18.25;;;13.90;;
14732;SDS011;7457;50.960;6.830;2023-12-07T09:04:26;19.25;;;13.65;;
14732;SDS011;7457;50.960;6.830;2023-12-07T09:06:52;17.50;;;13.18;;
14732;SDS011;7457;50.960;6.830;2023-12-07T09:09:18;18.00;;;12.75;;
14732;SDS011;7457;50.960;6.830;2023-12-07T09:11:44;17.88;;;11.35;;
14732;SDS011;7457;50.960;6.830;2023-12-07T09:14:10;17.23;;;13.13;;
14732;SDS011;7457;50.960;6.830;2023-12-07T09:16:42;20.90;;;14.98;;
14732;SDS011;7457;50.960;6.830;2023-12-07T09:19:09;19.10;;;11.50;;
14732;SDS011;7457;50.960;6.830;2023-12-07T09:21:35;16.20;;;12.38;;
14732;SDS011;7457;50.960;6.830;2023-12-07T09:24:01;17.40;;;13.10;;
14732;SDS011;7457;50.960;6.830;2023-12-07T09:26:26;17.70;;;12.90;;
14732;SDS011;7457;50.960;6.830;2023-12-07T09:28:52;15.93;;;12.13;;
14732;SDS011;7457;50.960;6.830;2023-12-07T09:31:18;14.98;;;11.60;;
14732;SDS011;7457;50.960;6.830;2023-12-07T09:33:43;15.52;;;11.68;;
14732;SDS011;7457;50.960;6.830;2023-12-07T09:36:10;14.70;;;10.68;;
14732;SDS011;7457;50.960;6.830;2023-12-07T09:38:36;14.35;;;11.32;;
14732;SDS011;7457;50.960;6.830;2023-12-07T09:41:02;14.73;;;10.68;;
14732;SDS011;7457;50.960;6.830;2023-12-07T09:43:28;13.55;;;11.20;;
14732;SDS011;7457;50.960;6.830;2023-12-07T09:45:54;14.73;;;11.35;;
14732;SDS011;7457;50.960;6.830;2023-12-07T09:48:22;12.82;;;10.23;;
14732;SDS011;7457;50.960;6.830;2023-12-07T09:50:48;14.88;;;10.70;;
14732;SDS011;7457;50.960;6.830;2023-12-07T09:53:14;13.25;;;10.55;;
14732;SDS011;7457;50.960;6.830;2023-12-07T09:55:40;12.43;;;10.77;;
14732;SDS011;7457;50.960;6.830;2023-12-07T09:58:06;13.77;;;10.35;;
14732;SDS011;7457;50.960;6.830;2023-12-07T10:00:32;13.07;;;9.90;;
14732;SDS011;7457;50.960;6.830;2023-12-07T10:02:58;16.95;;;10.50;;
14732;SDS011;7457;50.960;6.830;2023-12-07T10:05:24;13.27;;;9.93;;
14732;SDS011;7457;50.960;6.830;2023-12-07T10:07:49;11.45;;;9.85;;
14732;SDS011;7457;50.960;6.830;2023-12-07T10:10:16;12.77;;;10.48;;
14732;SDS011;7457;50.960;6.830;2023-12-07T10:15:17;12.90;;;9.57;;
14732;SDS011;7457;50.960;6.830;2023-12-07T10:17:48;10.82;;;9.27;;
14732;SDS011;7457;50.960;6.830;2023-12-07T10:20:18;11.02;;;9.82;;
14732;SDS011;7457;50.960;6.830;2023-12-07T10:23:09;12.10;;;10.48;;
14732;SDS011;7457;50.960;6.830;2023-12-07T10:25:37;11.00;;;9.85;;
14732;SDS011;7457;50.960;6.830;2023-12-07T10:28:04;10.95;;;9.77;;
14732;SDS011;7457;50.960;6.830;2023-12-07T10:30:34;12.95;;;9.45;;
14732;SDS011;7457;50.960;6.830;2023-12-07T10:33:02;12.88;;;10.15;;
14732;SDS011;7457;50.960;6.830;2023-12-07T10:35:38;10.40;;;9.27;;
14732;SDS011;7457;50.960;6.830;2023-12-07T10:38:04;14.05;;;10.70;;
14732;SDS011;7457;50.960;6.830;2023-12-07T10:40:30;11.68;;;10.45;;
14732;SDS011;7457;50.960;6.830;2023-12-07T10:42:57;14.32;;;10.75;;
14732;SDS011;7457;50.960;6.830;2023-12-07T10:45:24;11.52;;;9.80;;
14732;SDS011;7457;50.960;6.830;2023-12-07T10:47:51;12.25;;;10.23;;
14732;SDS011;7457;50.960;6.830;2023-12-07T10:50:19;13.90;;;10.23;;
14732;SDS011;7457;50.960;6.830;2023-12-07T10:52:48;12.15;;;9.70;;
14732;SDS011;7457;50.960;6.830;2023-12-07T10:55:20;13.45;;;9.55;;
14732;SDS011;7457;50.960;6.830;2023-12-07T10:57:49;13.15;;;10.20;;
14732;SDS011;7457;50.960;6.830;2023-12-07T11:00:18;12.75;;;10.60;;
14732;SDS011;7457;50.960;6.830;2023-12-07T11:02:44;11.85;;;10.25;;
14732;SDS011;7457;50.960;6.830;2023-12-07T11:05:11;13.93;;;11.18;;
14732;SDS011;7457;50.960;6.830;2023-12-07T11:07:48;13.25;;;10.90;;
14732;SDS011;7457;50.960;6.830;2023-12-07T11:10:18;12.40;;;9.93;;
14732;SDS011;7457;50.960;6.830;2023-12-07T11:12:56;12.38;;;9.75;;
14732;SDS011;7457;50.960;6.830;2023-12-07T11:15:34;11.77;;;10.60;;
14732;SDS011;7457;50.960;6.830;2023-12-07T11:18:01;12.38;;;9.95;;
14732;SDS011;7457;50.960;6.830;2023-12-07T11:20:40;12.15;;;9.75;;
14732;SDS011;7457;50.960;6.830;2023-12-07T11:23:07;13.32;;;9.38;;
14732;SDS011;7457;50.960;6.830;2023-12-07T11:25:34;12.82;;;10.88;;
14732;SDS011;7457;50.960;6.830;2023-12-07T11:28:04;11.60;;;10.02;;
14732;SDS011;7457;50.960;6.830;2023-12-07T11:30:34;12.68;;;9.30;;
14732;SDS011;7457;50.960;6.830;2023-12-07T11:33:03;14.15;;;11.32;;
14732;SDS011;7457;50.960;6.830;2023-12-07T11:35:29;11.93;;;9.98;;
14732;SDS011;7457;50.960;6.830;2023-12-07T11:40:36;10.30;;;8.88;;
14732;SDS011;7457;50.960;6.830;2023-12-07T11:43:04;13.50;;;9.18;;
14732;SDS011;7457;50.960;6.830;2023-12-07T11:45:41;13.07;;;10.05;;
14732;SDS011;7457;50.960;6.830;2023-12-07T11:48:11;11.13;;;9.07;;
14732;SDS011;7457;50.960;6.830;2023-12-07T11:50:58;10.18;;;9.07;;
14732;SDS011;7457;50.960;6.830;2023-12-07T11:55:54;11.63;;;9.48;;
14732;SDS011;7457;50.960;6.830;2023-12-07T11:58:21;12.35;;;9.60;;
14732;SDS011;7457;50.960;6.830;2023-12-07T12:00:47;13.77;;;11.38;;
14732;SDS011;7457;50.960;6.830;2023-12-07T12:03:13;11.57;;;10.38;;
14732;SDS011;7457;50.960;6.830;2023-12-07T12:05:40;10.40;;;8.43;;
14732;SDS011;7457;50.960;6.830;2023-12-07T12:08:06;9.40;;;8.43;;
14732;SDS011;7457;50.960;6.830;2023-12-07T12:10:32;10.73;;;9.38;;
14732;SDS011;7457;50.960;6.830;2023-12-07T12:13:01;10.27;;;8.98;;
14732;SDS011;7457;50.960;6.830;2023-12-07T12:15:28;9.45;;;8.45;;
14732;SDS011;7457;50.960;6.830;2023-12-07T12:17:55;12.80;;;9.88;;
14732;SDS011;7457;50.960;6.830;2023-12-07T12:20:22;10.77;;;9.43;;
14732;SDS011;7457;50.960;6.830;2023-12-07T12:22:49;9.65;;;8.65;;
14732;SDS011;7457;50.960;6.830;2023-12-07T12:25:18;12.60;;;10.00;;
14732;SDS011;7457;50.960;6.830;2023-12-07T12:27:46;11.80;;;9.90;;
14732;SDS011;7457;50.960;6.830;2023-12-07T12:30:12;11.10;;;8.88;;
14732;SDS011;7457;50.960;6.830;2023-12-07T12:32:44;10.90;;;8.95;;
14732;SDS011;7457;50.960;6.830;2023-12-07T12:35:11;11.23;;;8.63;;
14732;SDS011;7457;50.960;6.830;2023-12-07T12:37:39;12.30;;;8.40;;
14732;SDS011;7457;50.960;6.830;2023-12-07T12:40:07;11.52;;;9.05;;
14732;SDS011;7457;50.960;6.830;2023-12-07T12:42:34;10.30;;;8.38;;
14732;SDS011;7457;50.960;6.830;2023-12-07T12:45:02;12.85;;;9.23;;
14732;SDS011;7457;50.960;6.830;2023-12-07T12:47:29;12.10;;;8.88;;
14732;SDS011;7457;50.960;6.830;2023-12-07T12:49:55;13.35;;;8.13;;
14732;SDS011;7457;50.960;6.830;2023-12-07T12:52:20;10.80;;;8.00;;
14732;SDS011;7457;50.960;6.830;2023-12-07T12:54:50;11.85;;;9.50;;
14732;SDS011;7457;50.960;6.830;2023-12-07T12:57:16;12.25;;;9.82;;
14732;SDS011;7457;50.960;6.830;2023-12-07T12:59:44;12.20;;;9.75;;
14732;SDS011;7457;50.960;6.830;2023-12-07T13:02:10;11.93;;;10.30;;
14732;SDS011;7457;50.960;6.830;2023-12-07T13:04:36;11.43;;;10.23;;
14732;SDS011;7457;50.960;6.830;2023-12-07T13:07:02;13.55;;;9.77;;
14732;SDS011;7457;50.960;6.830;2023-12-07T13:09:28;14.48;;;9.93;;
14732;SDS011;7457;50.960;6.830;2023-12-07T13:11:54;11.70;;;9.68;;
14732;SDS011;7457;50.960;6.830;2023-12-07T13:14:19;12.20;;;9.55;;
14732;SDS011;7457;50.960;6.830;2023-12-07T13:16:45;11.88;;;10.65;;
14732;SDS011;7457;50.960;6.830;2023-12-07T13:19:10;10.68;;;9.52;;
14732;SDS011;7457;50.960;6.830;2023-12-07T13:21:36;11.00;;;8.18;;
14732;SDS011;7457;50.960;6.830;2023-12-07T13:24:02;8.65;;;7.70;;
14732;SDS011;7457;50.960;6.830;2023-12-07T13:26:29;11.38;;;9.20;;
14732;SDS011;7457;50.960;6.830;2023-12-07T13:28:55;10.98;;;9.90;;
14732;SDS011;7457;50.960;6.830;2023-12-07T13:31:21;10.90;;;9.18;;
14732;SDS011;7457;50.960;6.830;2023-12-07T13:33:47;9.35;;;7.75;;
14732;SDS011;7457;50.960;6.830;2023-12-07T13:36:12;11.35;;;7.93;;
14732;SDS011;7457;50.960;6.830;2023-12-07T13:38:39;10.15;;;8.02;;
14732;SDS011;7457;50.960;6.830;2023-12-07T13:41:05;11.20;;;7.18;;
14732;SDS011;7457;50.960;6.830;2023-12-07T13:43:32;9.70;;;7.22;;
14732;SDS011;7457;50.960;6.830;2023-12-07T13:45:58;10.95;;;7.32;;
14732;SDS011;7457;50.960;6.830;2023-12-07T13:48:24;10.18;;;6.90;;
14732;SDS011;7457;50.960;6.830;2023-12-07T13:50:51;12.65;;;9.45;;
14732;SDS011;7457;50.960;6.830;2023-12-07T13:53:17;10.95;;;7.95;;
14732;SDS011;7457;50.960;6.830;2023-12-07T13:55:44;8.40;;;6.57;;
14732;SDS011;7457;50.960;6.830;2023-12-07T13:58:10;10.07;;;7.03;;
14732;SDS011;7457;50.960;6.830;2023-12-07T14:00:38;11.10;;;6.93;;
14732;SDS011;7457;50.960;6.830;2023-12-07T14:03:04;8.00;;;6.38;;
14732;SDS011;7457;50.960;6.830;2023-12-07T14:05:30;8.02;;;6.28;;
14732;SDS011;7457;50.960;6.830;2023-12-07T14:07:55;10.20;;;6.25;;
14732;SDS011;7457;50.960;6.830;2023-12-07T14:10:21;8.35;;;7.25;;
14732;SDS011;7457;50.960;6.830;2023-12-07T14:12:47;8.55;;;6.97;;
14732;SDS011;7457;50.960;6.830;2023-12-07T14:15:13;8.32;;;6.40;;
14732;SDS011;7457;50.960;6.830;2023-12-07T14:17:39;11.07;;;7.25;;
14732;SDS011;7457;50.960;6.830;2023-12-07T14:22:34;8.15;;;6.07;;
14732;SDS011;7457;50.960;6.830;2023-12-07T14:25:00;8.90;;;6.78;;
14732;SDS011;7457;50.960;6.830;2023-12-07T14:27:26;8.45;;;6.70;;
14732;SDS011;7457;50.960;6.830;2023-12-07T14:29:52;9.85;;;7.40;;
14732;SDS011;7457;50.960;6.830;2023-12-07T14:32:18;9.60;;;8.57;;
14732;SDS011;7457;50.960;6.830;2023-12-07T14:34:43;9.55;;;6.70;;
14732;SDS011;7457;50.960;6.830;2023-12-07T14:37:09;8.65;;;7.75;;
14732;SDS011;7457;50.960;6.830;2023-12-07T14:39:35;9.88;;;6.90;;
14732;SDS011;7457;50.960;6.830;2023-12-07T14:42:01;10.82;;;9.35;;
14732;SDS011;7457;50.960;6.830;2023-12-07T14:44:29;9.45;;;7.38;;
14732;SDS011;7457;50.960;6.830;2023-12-07T14:46:55;10.13;;;7.65;;